Pex — V2OS6 — position and weather

sailwx.info

Track history (hours):
 
Tides and Currents Weather Stations Pressure Air Temp Water Temp Dewpoint Dewpoint Depression Visibility Wind Speed Wind Dir Waves Ship Positions

Pex

Last reported at 2018-Feb-21 11:15 UTC. Time now 2018-Feb-23 20:40 UTC.
Position N 38°15' E 012°58'.

; draft 5.9 m.

Type: Cargo ship. MMSI: 304201000.

Date/timePositionNaut miles runAvg speedWind from/ knotsBaromVisibWave heightAir tempDewpointWater temp
2018-Feb-21 11:15N 38°15' E 012°58'3 9.3
2018-Feb-21 10:57N 38°16' E 013°02'4 9.5
2018-Feb-21 10:30N 38°16' E 013°07'510.0
2018-Feb-21 10:00N 38°17' E 013°14'510.7
2018-Feb-21 09:30N 38°17' E 013°20'5 9.4
2018-Feb-21 09:00N 38°17' E 013°26'5 9.4
2018-Feb-21 08:30N 38°18' E 013°32'5 9.2
2018-Feb-21 08:00N 38°18' E 013°38'5 9.1
2018-Feb-21 07:30N 38°18' E 013°44'5 9.4
2018-Feb-21 06:59N 38°18' E 013°50'5 9.4
2018-Feb-21 06:29N 38°18' E 013°56'5 9.6
2018-Feb-21 05:58N 38°18' E 014°02'5 9.7
2018-Feb-21 05:30N 38°18' E 014°08'36 9.9
2018-Feb-21 01:48N 38°19' E 014°55'3 9.9
2018-Feb-21 01:29N 38°19' E 014°59'510.0
2018-Feb-21 01:00N 38°19' E 015°05'510.0
2018-Feb-21 00:30N 38°20' E 015°11'5 9.8
2018-Feb-21 00:00N 38°20' E 015°17'510.4
2018-Feb-20 23:30N 38°20' E 015°24'510.1
2018-Feb-20 23:00N 38°20' E 015°30'5 9.2
2018-Feb-20 22:30N 38°19' E 015°36'5 9.3
2018-Feb-20 21:58N 38°17' E 015°42'4 9.0
2018-Feb-20 21:29N 38°14' E 015°37'5 9.8
2018-Feb-20 21:00N 38°09' E 015°37'5 9.4
2018-Feb-20 20:30N 38°04' E 015°36'5 9.3
2018-Feb-20 20:00N 37°60' E 015°36'5 9.9
2018-Feb-20 19:30N 37°56' E 015°39'1 2.3
2018-Feb-20 19:00N 37°56' E 015°41'5 9.3
2018-Feb-20 18:31N 37°54' E 015°46'143 8.7
2018-Feb-20 01:59N 40°01' E 017°10'510.1
2018-Feb-20 01:30N 40°06' E 017°10'5 9.5
2018-Feb-20 01:00N 40°11' E 017°09'5 9.7
2018-Feb-20 00:30N 40°15' E 017°09'510.0
2018-Feb-20 00:01N 40°20' E 017°08'5 9.0
2018-Feb-19 23:30N 40°25' E 017°08'4 8.5
2018-Feb-19 23:00N 40°28' E 017°13'1 1.8
2018-Feb-19 22:30N 40°28' E 017°13'0 0.0
2018-Feb-19 22:00N 40°28' E 017°13'0 0.0
2018-Feb-19 21:24N 40°28' E 017°13'0 0.0
2018-Feb-19 21:00N 40°28' E 017°13'0 0.0
2018-Feb-19 20:30N 40°28' E 017°13'0 0.0
2018-Feb-19 20:00N 40°28' E 017°13'0 0.0
2018-Feb-19 19:30N 40°28' E 017°13'0 0.0
2018-Feb-19 18:57N 40°28' E 017°13'0 0.0
2018-Feb-19 18:27N 40°28' E 017°13'0 0.0
2018-Feb-19 17:57N 40°28' E 017°13'0 0.0
2018-Feb-19 17:27N 40°28' E 017°13'0 0.0
2018-Feb-19 16:57N 40°28' E 017°13'0 0.0
2018-Feb-19 16:27N 40°28' E 017°13'0 0.0
2018-Feb-19 15:57N 40°28' E 017°13'0 0.0
2018-Feb-19 15:27N 40°28' E 017°13'0 0.0
2018-Feb-19 14:57N 40°28' E 017°13'0 0.0
2018-Feb-19 14:21N 40°28' E 017°13'0 0.0
2018-Feb-19 13:57N 40°28' E 017°13'0 0.0
2018-Feb-19 13:27N 40°28' E 017°13'0 0.0
2018-Feb-19 12:57N 40°28' E 017°13'0 0.0
2018-Feb-19 12:27N 40°28' E 017°13'0 0.0
2018-Feb-19 12:00N 40°28' E 017°13'0 0.0
2018-Feb-19 11:27N 40°28' E 017°13'0 0.0
2018-Feb-19 10:57N 40°28' E 017°13'0 0.0
2018-Feb-19 10:27N 40°28' E 017°13'0 0.0
2018-Feb-19 09:57N 40°28' E 017°13'0 0.0
2018-Feb-19 09:27N 40°28' E 017°13'0 0.0
2018-Feb-19 08:57N 40°28' E 017°13'0 0.0
2018-Feb-19 08:15N 40°28' E 017°13'0 0.0
2018-Feb-19 07:57N 40°28' E 017°13'0 0.0
2018-Feb-19 07:27N 40°28' E 017°13'0 0.0
2018-Feb-19 06:57N 40°28' E 017°13'0 0.0
2018-Feb-19 06:30N 40°28' E 017°13'0 0.0
2018-Feb-19 06:00N 40°28' E 017°13'0 0.0
2018-Feb-19 05:30N 40°28' E 017°13'0 0.0
2018-Feb-19 04:57N 40°28' E 017°13'0 0.0
2018-Feb-19 04:30N 40°28' E 017°13'0 0.0
2018-Feb-19 03:51N 40°28' E 017°13'0 0.0
2018-Feb-19 03:30N 40°28' E 017°13'0 0.0
2018-Feb-19 02:57N 40°28' E 017°13'0 0.0
2018-Feb-19 02:30N 40°28' E 017°13'0 0.0
2018-Feb-19 02:00N 40°28' E 017°13'0 0.0
2018-Feb-19 01:27N 40°28' E 017°13'0 0.0
2018-Feb-19 01:00N 40°28' E 017°13'0 0.0
2018-Feb-19 00:27N 40°28' E 017°13'0 0.0
2018-Feb-18 23:57N 40°28' E 017°13'0 0.0
2018-Feb-18 23:30N 40°28' E 017°13'0 0.0
2018-Feb-18 23:00N 40°28' E 017°13'0 0.0
2018-Feb-18 22:30N 40°28' E 017°13'0 0.0
2018-Feb-18 22:00N 40°28' E 017°13'0 0.0
2018-Feb-18 21:30N 40°28' E 017°13'0 0.0
2018-Feb-18 21:00N 40°28' E 017°13'0 0.0
2018-Feb-18 20:30N 40°28' E 017°13'0 0.0
2018-Feb-18 20:00N 40°28' E 017°13'0 0.0
2018-Feb-18 19:27N 40°28' E 017°13'0 0.0
2018-Feb-18 19:00N 40°28' E 017°13'0 0.0
2018-Feb-18 18:27N 40°28' E 017°13'0 0.0
2018-Feb-18 18:00N 40°28' E 017°13'0 0.0
2018-Feb-18 17:30N 40°28' E 017°13'0 0.0
2018-Feb-18 17:00N 40°28' E 017°13'0 0.0
2018-Feb-18 16:30N 40°28' E 017°13'0 0.0
2018-Feb-18 16:00N 40°28' E 017°13'0 0.0
2018-Feb-18 15:30N 40°28' E 017°13'0 0.0
2018-Feb-18 15:00N 40°28' E 017°13'0 0.0
2018-Feb-18 14:30N 40°28' E 017°13'0 0.0
2018-Feb-18 14:00N 40°28' E 017°13'0 0.0
2018-Feb-18 13:30N 40°28' E 017°13'0 0.0
2018-Feb-18 12:57N 40°28' E 017°13'0 0.0
2018-Feb-18 12:27N 40°28' E 017°13'0 0.0
2018-Feb-18 11:57N 40°28' E 017°13'0 0.0
2018-Feb-18 11:27N 40°28' E 017°13'0 0.0
2018-Feb-18 10:57N 40°28' E 017°13'0 0.0
2018-Feb-18 10:27N 40°28' E 017°13'0 0.0
2018-Feb-18 09:57N 40°28' E 017°13'0 0.0
2018-Feb-18 09:27N 40°28' E 017°13'0 0.0
2018-Feb-18 08:57N 40°28' E 017°13'0 0.0
2018-Feb-18 08:27N 40°28' E 017°13'0 0.0
2018-Feb-18 07:57N 40°28' E 017°13'0 0.0
2018-Feb-18 07:27N 40°28' E 017°13'0 0.0
2018-Feb-18 06:57N 40°28' E 017°13'0 0.0
2018-Feb-18 06:27N 40°28' E 017°13'0 0.0
2018-Feb-18 05:57N 40°28' E 017°13'0 0.0
2018-Feb-18 05:30N 40°28' E 017°13'0 0.0
2018-Feb-18 05:00N 40°28' E 017°13'0 0.0
2018-Feb-18 04:27N 40°28' E 017°13'0 0.0
2018-Feb-18 03:57N 40°28' E 017°13'0 0.0
2018-Feb-18 03:30N 40°28' E 017°13'0 0.0
2018-Feb-18 03:00N 40°28' E 017°13'0 0.0
2018-Feb-18 02:30N 40°28' E 017°13'0 0.0
2018-Feb-18 02:00N 40°28' E 017°13'0 0.0
2018-Feb-18 01:30N 40°28' E 017°13'0 0.0
2018-Feb-18 01:00N 40°28' E 017°13'0 0.0
2018-Feb-18 00:30N 40°28' E 017°13'0 0.0
2018-Feb-17 23:57N 40°28' E 017°13'0 0.0
2018-Feb-17 23:30N 40°28' E 017°13'0 0.0
2018-Feb-17 22:57N 40°28' E 017°13'0 0.0
2018-Feb-17 22:27N 40°28' E 017°13'0 0.0
2018-Feb-17 21:57N 40°28' E 017°13'0 0.0
2018-Feb-17 21:30N 40°28' E 017°13'0 0.0
2018-Feb-17 20:57N 40°28' E 017°13'0 0.0
2018-Feb-17 20:30N 40°28' E 017°13'0 0.0
2018-Feb-17 19:57N 40°28' E 017°13'0 0.0
2018-Feb-17 19:27N 40°28' E 017°13'0 0.0
2018-Feb-17 18:57N 40°28' E 017°13'0 0.0
2018-Feb-17 18:27N 40°28' E 017°13'0 0.0
2018-Feb-17 17:57N 40°28' E 017°13'0 0.0
2018-Feb-17 17:27N 40°28' E 017°13'0 0.0
2018-Feb-17 16:57N 40°28' E 017°13'0 0.0
2018-Feb-17 16:27N 40°28' E 017°13'0 0.0
2018-Feb-17 15:57N 40°28' E 017°13'0 0.0
2018-Feb-17 15:27N 40°28' E 017°13'0 0.0
2018-Feb-17 14:57N 40°28' E 017°13'0 0.0
2018-Feb-17 14:27N 40°28' E 017°13'0 0.0
2018-Feb-17 13:57N 40°28' E 017°13'0 0.0
2018-Feb-17 13:27N 40°28' E 017°13'0 0.0
2018-Feb-17 12:57N 40°28' E 017°13'0 0.0
2018-Feb-17 12:27N 40°28' E 017°13'0 0.0
2018-Feb-17 11:57N 40°28' E 017°13'0 0.0
2018-Feb-17 11:27N 40°28' E 017°13'0 0.0
2018-Feb-17 10:57N 40°28' E 017°13'0 0.0
2018-Feb-17 10:27N 40°28' E 017°13'0 0.0
2018-Feb-17 09:57N 40°28' E 017°13'0 0.0
2018-Feb-17 09:27N 40°28' E 017°13'0 0.0
2018-Feb-17 08:57N 40°28' E 017°13'0 0.0
2018-Feb-17 08:27N 40°28' E 017°13'0 0.0
2018-Feb-17 07:57N 40°28' E 017°13'0 0.0
2018-Feb-17 07:27N 40°28' E 017°13'0 0.0
2018-Feb-17 06:57N 40°28' E 017°13'0 0.0
2018-Feb-17 06:27N 40°28' E 017°13'0 0.0
2018-Feb-17 05:57N 40°28' E 017°13'0 0.0
2018-Feb-17 05:30N 40°28' E 017°13'0 0.0
2018-Feb-17 05:00N 40°28' E 017°13'0 0.0
2018-Feb-17 04:30N 40°28' E 017°13'0 0.0
2018-Feb-17 04:00N 40°28' E 017°13'0 0.0
2018-Feb-17 03:30N 40°28' E 017°13'0 0.0
2018-Feb-17 03:00N 40°28' E 017°13'0 0.0
2018-Feb-17 02:30N 40°28' E 017°13'0 0.0
2018-Feb-17 02:00N 40°28' E 017°13'0 0.0
2018-Feb-17 01:30N 40°28' E 017°13'0 0.0
2018-Feb-17 01:00N 40°28' E 017°13'0 0.0
2018-Feb-17 00:30N 40°28' E 017°13'0 0.0
2018-Feb-17 00:00N 40°28' E 017°13'0 0.0
2018-Feb-16 23:30N 40°28' E 017°13'0 0.0
2018-Feb-16 23:00N 40°28' E 017°13'0 0.0
2018-Feb-16 22:30N 40°28' E 017°13'0 0.0
2018-Feb-16 22:00N 40°28' E 017°13'0 0.0
2018-Feb-16 21:30N 40°28' E 017°13'0 0.0
2018-Feb-16 21:00N 40°28' E 017°13'0 0.0
2018-Feb-16 20:30N 40°28' E 017°13'0 0.0
2018-Feb-16 19:57N 40°28' E 017°13'0 0.0
2018-Feb-16 19:27N 40°28' E 017°13'0 0.0
2018-Feb-16 18:57N 40°28' E 017°13'0 0.0
2018-Feb-16 18:30N 40°28' E 017°13'0 0.0
2018-Feb-16 17:57N 40°28' E 017°13'0 0.0
2018-Feb-16 17:27N 40°28' E 017°13'0 0.0
2018-Feb-16 16:57N 40°28' E 017°13'0 0.0
2018-Feb-16 16:21N 40°28' E 017°13'0 0.0
2018-Feb-16 15:57N 40°28' E 017°13'0 0.0
2018-Feb-16 15:27N 40°28' E 017°13'0 0.0
2018-Feb-16 14:57N 40°28' E 017°13'0 0.0
2018-Feb-16 14:30N 40°28' E 017°13'0 0.0
2018-Feb-16 14:00N 40°28' E 017°13'0 0.0
2018-Feb-16 13:30N 40°28' E 017°13'0 0.0
2018-Feb-16 12:57N 40°28' E 017°13'0 0.0
2018-Feb-16 12:30N 40°28' E 017°13'0 0.0
2018-Feb-16 11:57N 40°28' E 017°13'0 0.0
2018-Feb-16 11:27N 40°28' E 017°13'0 0.0
2018-Feb-16 10:57N 40°28' E 017°13'0 0.0
2018-Feb-16 10:27N 40°28' E 017°13'0 0.0
2018-Feb-16 09:51N 40°28' E 017°13'0 0.0
2018-Feb-16 09:27N 40°28' E 017°13'0 0.0
2018-Feb-16 08:57N 40°28' E 017°13'0 0.0
2018-Feb-16 08:27N 40°28' E 017°13'0 0.0
2018-Feb-16 07:57N 40°28' E 017°13'0 0.0
2018-Feb-16 07:27N 40°28' E 017°13'0 0.0
2018-Feb-16 07:00N 40°28' E 017°13'0 0.0
2018-Feb-16 06:30N 40°28' E 017°13'0 0.0
2018-Feb-16 06:00N 40°28' E 017°13'0 0.0
2018-Feb-16 05:30N 40°28' E 017°13'0 0.0
2018-Feb-16 04:54N 40°28' E 017°13'0 0.0
2018-Feb-16 04:30N 40°28' E 017°13'0 0.0
2018-Feb-16 04:00N 40°28' E 017°13'0 0.0
2018-Feb-16 03:30N 40°28' E 017°13'0 0.0
2018-Feb-16 02:57N 40°28' E 017°13'0 0.0
2018-Feb-16 02:30N 40°28' E 017°13'0 0.0
2018-Feb-16 02:00N 40°28' E 017°13'0 0.0
2018-Feb-16 01:30N 40°28' E 017°13'0 0.0
2018-Feb-16 01:00N 40°28' E 017°13'0 0.0
2018-Feb-16 00:27N 40°28' E 017°13'0 0.0
2018-Feb-15 23:57N 40°28' E 017°13'0 0.0
2018-Feb-15 23:27N 40°28' E 017°13'0 0.0
2018-Feb-15 22:57N 40°28' E 017°13'0 0.0
2018-Feb-15 22:27N 40°28' E 017°13'0 0.0
2018-Feb-15 21:57N 40°28' E 017°13'0 0.0
2018-Feb-15 21:27N 40°28' E 017°13'0 0.0
2018-Feb-15 20:57N 40°28' E 017°13'0 0.0
2018-Feb-15 20:27N 40°28' E 017°13'0 0.0
2018-Feb-15 20:00N 40°28' E 017°13'0 0.0
2018-Feb-15 19:30N 40°28' E 017°13'0 0.0
2018-Feb-15 19:00N 40°28' E 017°13'0 0.0
2018-Feb-15 18:30N 40°28' E 017°13'0 0.0
2018-Feb-15 18:00N 40°28' E 017°13'0 0.0
2018-Feb-15 17:27N 40°28' E 017°13'0 0.0
2018-Feb-15 16:57N 40°28' E 017°13'0 0.0
2018-Feb-15 16:27N 40°28' E 017°13'0 0.0
2018-Feb-15 15:57N 40°28' E 017°13'0 0.0
2018-Feb-15 15:27N 40°28' E 017°13'0 0.0
2018-Feb-15 14:57N 40°28' E 017°13'0 0.0
2018-Feb-15 14:27N 40°28' E 017°13'0 0.0
2018-Feb-15 13:57N 40°28' E 017°13'0 0.0
2018-Feb-15 13:27N 40°28' E 017°13'0 0.0
2018-Feb-15 13:00N 40°28' E 017°13'0 0.0
2018-Feb-15 12:24N 40°28' E 017°13'0 0.0
2018-Feb-15 11:54N 40°28' E 017°13'0 0.0
2018-Feb-15 11:30N 40°28' E 017°13'0 0.0
2018-Feb-15 10:57N 40°28' E 017°13'0 0.0
2018-Feb-15 10:27N 40°28' E 017°13'0 0.0
2018-Feb-15 09:57N 40°28' E 017°13'0 0.0
2018-Feb-15 09:30N 40°28' E 017°13'0 0.0
2018-Feb-15 09:00N 40°28' E 017°13'0 0.0
2018-Feb-15 08:27N 40°28' E 017°13'0 0.0
2018-Feb-15 07:57N 40°28' E 017°13'0 0.0
2018-Feb-15 07:30N 40°28' E 017°13'0 0.0
2018-Feb-15 06:57N 40°28' E 017°13'0 0.0
2018-Feb-15 06:21N 40°28' E 017°13'0 0.0
2018-Feb-15 06:00N 40°28' E 017°13'0 0.0
2018-Feb-15 05:30N 40°28' E 017°13'0 0.0
2018-Feb-15 05:00N 40°28' E 017°13'0 0.0
2018-Feb-15 04:30N 40°28' E 017°13'0 0.0
2018-Feb-15 04:00N 40°28' E 017°13'0 0.0
2018-Feb-15 03:30N 40°28' E 017°13'0 0.0
2018-Feb-15 03:00N 40°28' E 017°13'0 0.0
2018-Feb-15 02:30N 40°28' E 017°13'0 0.0
2018-Feb-15 02:00N 40°28' E 017°13'0 0.0
2018-Feb-15 01:30N 40°28' E 017°13'0 0.0
2018-Feb-15 01:00N 40°28' E 017°13'0 0.0
2018-Feb-15 00:30N 40°28' E 017°13'0 0.0
2018-Feb-15 00:00N 40°28' E 017°13'0 0.0
2018-Feb-14 23:30N 40°28' E 017°13'0 0.0
2018-Feb-14 23:00N 40°28' E 017°13'0 0.0
2018-Feb-14 22:30N 40°28' E 017°13'0 0.0
2018-Feb-14 21:57N 40°28' E 017°13'0 0.0
2018-Feb-14 21:30N 40°28' E 017°13'0 0.0
2018-Feb-14 21:00N 40°28' E 017°13'0 0.0
2018-Feb-14 20:30N 40°28' E 017°13'0 0.0
2018-Feb-14 19:57N 40°28' E 017°13'0 0.0
2018-Feb-14 19:30N 40°28' E 017°13'0 0.0
2018-Feb-14 18:57N 40°28' E 017°13'0 0.0
2018-Feb-14 18:27N 40°28' E 017°13'0 0.0
2018-Feb-14 18:00N 40°28' E 017°13'0 0.0
2018-Feb-14 17:27N 40°28' E 017°13'0 0.0
2018-Feb-14 16:57N 40°28' E 017°13'0 0.0
2018-Feb-14 16:27N 40°28' E 017°13'0 0.0
2018-Feb-14 15:57N 40°28' E 017°13'0 0.0
2018-Feb-14 15:27N 40°28' E 017°13'0 0.0
2018-Feb-14 14:57N 40°28' E 017°13'0 0.0
2018-Feb-14 14:15N 40°28' E 017°13'0 0.0
2018-Feb-14 13:57N 40°28' E 017°13'0 0.0
2018-Feb-14 13:27N 40°28' E 017°13'0 0.0
2018-Feb-14 12:57N 40°28' E 017°13'0 0.0
2018-Feb-14 12:27N 40°28' E 017°13'0 0.0
2018-Feb-14 11:57N 40°28' E 017°13'0 0.0
2018-Feb-14 11:21N 40°28' E 017°13'0 0.0
2018-Feb-14 10:57N 40°28' E 017°13'0 0.0
2018-Feb-14 10:27N 40°28' E 017°13'0 0.0
2018-Feb-14 09:57N 40°28' E 017°13'0 0.0
2018-Feb-14 09:30N 40°28' E 017°13'0 0.0
2018-Feb-14 08:57N 40°28' E 017°13'0 0.0
2018-Feb-14 08:27N 40°28' E 017°13'0 0.0
2018-Feb-14 07:57N 40°28' E 017°13'0 0.0
2018-Feb-14 07:30N 40°28' E 017°13'0 0.0
2018-Feb-14 07:00N 40°28' E 017°13'0 0.0
2018-Feb-14 06:30N 40°28' E 017°13'0 0.0
2018-Feb-14 06:00N 40°28' E 017°13'0 0.0
2018-Feb-14 05:30N 40°28' E 017°13'0 0.0
2018-Feb-14 05:00N 40°28' E 017°13'0 0.0
2018-Feb-14 04:30N 40°28' E 017°13'0 0.0
2018-Feb-14 04:00N 40°28' E 017°13'0 0.0
2018-Feb-14 03:30N 40°28' E 017°13'0 0.0
2018-Feb-14 03:00N 40°28' E 017°13'0 0.0
2018-Feb-14 02:30N 40°28' E 017°13'0 0.0
2018-Feb-14 02:00N 40°28' E 017°13'0 0.0
2018-Feb-14 01:27N 40°28' E 017°13'0 0.0
2018-Feb-14 01:00N 40°28' E 017°13'0 0.0
2018-Feb-14 00:30N 40°28' E 017°13'0 0.0
2018-Feb-14 00:00N 40°28' E 017°13'0 0.0
2018-Feb-13 23:30N 40°28' E 017°13'0 0.0
2018-Feb-13 23:00N 40°28' E 017°13'0 0.0
2018-Feb-13 22:30N 40°28' E 017°13'0 0.0
2018-Feb-13 22:00N 40°28' E 017°13'0 0.0
2018-Feb-13 21:30N 40°28' E 017°13'0 0.0
2018-Feb-13 21:00N 40°28' E 017°13'0 0.0
2018-Feb-13 20:30N 40°28' E 017°13'0 0.0
2018-Feb-13 20:00N 40°28' E 017°13'0 0.0
2018-Feb-13 19:27N 40°28' E 017°13'0 0.0
2018-Feb-13 18:57N 40°28' E 017°13'0 0.0
2018-Feb-13 18:27N 40°28' E 017°13'0 0.0
2018-Feb-13 17:57N 40°28' E 017°13'0 0.0
2018-Feb-13 17:27N 40°28' E 017°13'0 0.0
2018-Feb-13 16:57N 40°28' E 017°13'0 0.0
2018-Feb-13 16:27N 40°28' E 017°13'0 0.0
2018-Feb-13 15:54N 40°28' E 017°13'0 0.0
2018-Feb-13 15:27N 40°28' E 017°13'0 0.0
2018-Feb-13 14:57N 40°28' E 017°13'0 0.0
2018-Feb-13 14:27N 40°28' E 017°13'0 0.0
2018-Feb-13 13:57N 40°28' E 017°13'0 0.0
2018-Feb-13 13:27N 40°28' E 017°13'0 0.0
2018-Feb-13 13:00N 40°28' E 017°13'0 0.0
2018-Feb-13 12:27N 40°28' E 017°13'0 0.0
2018-Feb-13 11:57N 40°28' E 017°13'0 0.0
2018-Feb-13 11:27N 40°28' E 017°13'0 0.0
2018-Feb-13 10:57N 40°28' E 017°13'0 0.0
2018-Feb-13 10:27N 40°28' E 017°13'0 0.0
2018-Feb-13 09:57N 40°28' E 017°13'0 0.0
2018-Feb-13 09:27N 40°28' E 017°13'0 0.0
2018-Feb-13 08:57N 40°28' E 017°13'0 0.0
2018-Feb-13 08:30N 40°28' E 017°13'0 0.0
2018-Feb-13 07:57N 40°28' E 017°13'0 0.0
2018-Feb-13 07:27N 40°28' E 017°13'0 0.0
2018-Feb-13 06:57N 40°28' E 017°13'0 0.0
2018-Feb-13 06:27N 40°28' E 017°13'0 0.0
2018-Feb-13 06:00N 40°28' E 017°13'0 0.0
2018-Feb-13 05:30N 40°28' E 017°13'0 0.0
2018-Feb-13 05:00N 40°28' E 017°13'0 0.0
2018-Feb-13 04:30N 40°28' E 017°13'0 0.0
2018-Feb-13 04:00N 40°28' E 017°13'0 0.0
2018-Feb-13 03:30N 40°28' E 017°13'0 0.0
2018-Feb-13 03:00N 40°28' E 017°13'0 0.0
2018-Feb-13 02:30N 40°28' E 017°13'0 0.0
2018-Feb-13 02:00N 40°28' E 017°13'0 0.0
2018-Feb-13 01:30N 40°28' E 017°13'0 0.0
2018-Feb-13 01:00N 40°28' E 017°13'0 0.0
2018-Feb-13 00:30N 40°28' E 017°13'0 0.0
2018-Feb-13 00:00N 40°28' E 017°13'0 0.0
2018-Feb-12 23:30N 40°28' E 017°13'0 0.0
2018-Feb-12 23:00N 40°28' E 017°13'0 0.0
2018-Feb-12 22:30N 40°28' E 017°13'0 0.0
2018-Feb-12 22:00N 40°28' E 017°13'0 0.0
2018-Feb-12 21:30N 40°28' E 017°13'0 0.0
2018-Feb-12 21:00N 40°28' E 017°13'0 0.0
2018-Feb-12 20:30N 40°28' E 017°13'0 0.0
2018-Feb-12 20:00N 40°28' E 017°13'0 0.0
2018-Feb-12 19:30N 40°28' E 017°13'0 0.0
2018-Feb-12 19:00N 40°28' E 017°13'0 0.0
2018-Feb-12 18:30N 40°28' E 017°13'0 0.0
2018-Feb-12 18:00N 40°28' E 017°13'0 0.0
2018-Feb-12 17:30N 40°28' E 017°13'0 0.0
2018-Feb-12 17:00N 40°28' E 017°13'0 0.0
2018-Feb-12 16:30N 40°28' E 017°13'0 0.0
2018-Feb-12 16:00N 40°28' E 017°13'0 0.0
2018-Feb-12 15:12N 40°28' E 017°13'0 0.0
2018-Feb-12 14:45N 40°28' E 017°13'0 0.0
2018-Feb-12 14:30N 40°28' E 017°13'0 0.0
2018-Feb-12 14:00N 40°28' E 017°13'0 0.0
2018-Feb-12 13:30N 40°28' E 017°13'0 0.0
2018-Feb-12 13:00N 40°28' E 017°13'0 0.0
2018-Feb-12 12:27N 40°28' E 017°13'0 0.0
2018-Feb-12 11:57N 40°28' E 017°13'0 0.0
2018-Feb-12 11:27N 40°28' E 017°13'0 0.0
2018-Feb-12 10:57N 40°28' E 017°13'0 0.0
2018-Feb-12 10:27N 40°28' E 017°13'0 0.0
2018-Feb-12 09:57N 40°28' E 017°13'0 0.0
2018-Feb-12 09:27N 40°28' E 017°13'0 0.0
2018-Feb-12 08:57N 40°28' E 017°13'0 0.0
2018-Feb-12 08:27N 40°28' E 017°13'0 0.0
2018-Feb-12 07:57N 40°28' E 017°13'0 0.0
2018-Feb-12 07:21N 40°28' E 017°13'0 0.0
2018-Feb-12 06:57N 40°28' E 017°13'0 0.0
2018-Feb-12 06:15N 40°28' E 017°13'0 0.0
2018-Feb-12 05:57N 40°28' E 017°13'0 0.0
2018-Feb-12 05:27N 40°28' E 017°13'0 0.0
2018-Feb-12 05:00N 40°28' E 017°13'0 0.0
2018-Feb-12 04:30N 40°28' E 017°13'0 0.0
2018-Feb-12 04:00N 40°28' E 017°13'0 0.0
2018-Feb-12 03:30N 40°28' E 017°13'0 0.0
2018-Feb-12 03:00N 40°28' E 017°13'0 0.0
2018-Feb-12 02:30N 40°28' E 017°13'0 0.0
2018-Feb-12 02:00N 40°28' E 017°13'0 0.0
2018-Feb-12 01:21N 40°28' E 017°13'0 0.0
2018-Feb-12 01:00N 40°28' E 017°13'0 0.0
2018-Feb-12 00:30N 40°28' E 017°13'0 0.0
2018-Feb-12 00:00N 40°28' E 017°13'0 0.0
2018-Feb-11 23:27N 40°28' E 017°13'0 0.0
2018-Feb-11 22:57N 40°28' E 017°13'0 0.0
2018-Feb-11 22:30N 40°28' E 017°13'0 0.0
2018-Feb-11 22:00N 40°28' E 017°13'0 0.0
2018-Feb-11 21:30N 40°28' E 017°13'0 0.0
2018-Feb-11 21:00N 40°28' E 017°13'0 0.0
2018-Feb-11 20:30N 40°28' E 017°13'0 0.0
2018-Feb-11 20:00N 40°28' E 017°13'0 0.0
2018-Feb-11 19:30N 40°28' E 017°13'0 0.0
2018-Feb-11 19:00N 40°28' E 017°13'0 0.0
2018-Feb-11 18:30N 40°28' E 017°13'0 0.0
2018-Feb-11 17:57N 40°28' E 017°13'0 0.0
2018-Feb-11 17:27N 40°28' E 017°13'0 0.0
2018-Feb-11 17:00N 40°28' E 017°13'0 0.0
2018-Feb-11 16:27N 40°28' E 017°13'0 0.0
2018-Feb-11 15:57N 40°28' E 017°13'0 0.0
2018-Feb-11 15:30N 40°28' E 017°13'0 0.0
2018-Feb-11 15:00N 40°28' E 017°13'0 0.0
2018-Feb-11 14:30N 40°28' E 017°13'0 0.0
2018-Feb-11 14:00N 40°28' E 017°13'0 0.0
2018-Feb-11 13:27N 40°28' E 017°13'0 0.0
2018-Feb-11 12:57N 40°28' E 017°13'0 0.0
2018-Feb-11 12:27N 40°28' E 017°13'0 0.0
2018-Feb-11 11:57N 40°28' E 017°13'0 0.0
2018-Feb-11 11:27N 40°28' E 017°13'  
Track history (hours):
 
Tides and Currents Weather Stations Pressure Air Temp Water Temp Dewpoint Dewpoint Depression Visibility Wind Speed Wind Dir Waves Ship Positions

Pex

Last reported at 2018-Feb-21 11:15 UTC. Time now 2018-Feb-23 20:40 UTC.
Position N 38°15' E 012°58'.

; draft 5.9 m.

Type: Cargo ship. MMSI: 304201000.

Date/timePositionNaut miles runAvg speedWind from/ knotsBaromVisibWave heightAir tempDewpointWater temp
2018-Feb-21 11:15N 38°15' E 012°58'3 9.3
2018-Feb-21 10:57N 38°16' E 013°02'4 9.5
2018-Feb-21 10:30N 38°16' E 013°07'510.0
2018-Feb-21 10:00N 38°17' E 013°14'510.7
2018-Feb-21 09:30N 38°17' E 013°20'5 9.4
2018-Feb-21 09:00N 38°17' E 013°26'5 9.4
2018-Feb-21 08:30N 38°18' E 013°32'5 9.2
2018-Feb-21 08:00N 38°18' E 013°38'5 9.1
2018-Feb-21 07:30N 38°18' E 013°44'5 9.4
2018-Feb-21 06:59N 38°18' E 013°50'5 9.4
2018-Feb-21 06:29N 38°18' E 013°56'5 9.6
2018-Feb-21 05:58N 38°18' E 014°02'5 9.7
2018-Feb-21 05:30N 38°18' E 014°08'36 9.9
2018-Feb-21 01:48N 38°19' E 014°55'3 9.9
2018-Feb-21 01:29N 38°19' E 014°59'510.0
2018-Feb-21 01:00N 38°19' E 015°05'510.0
2018-Feb-21 00:30N 38°20' E 015°11'5 9.8
2018-Feb-21 00:00N 38°20' E 015°17'510.4
2018-Feb-20 23:30N 38°20' E 015°24'510.1
2018-Feb-20 23:00N 38°20' E 015°30'5 9.2
2018-Feb-20 22:30N 38°19' E 015°36'5 9.3
2018-Feb-20 21:58N 38°17' E 015°42'4 9.0
2018-Feb-20 21:29N 38°14' E 015°37'5 9.8
2018-Feb-20 21:00N 38°09' E 015°37'5 9.4
2018-Feb-20 20:30N 38°04' E 015°36'5 9.3
2018-Feb-20 20:00N 37°60' E 015°36'5 9.9
2018-Feb-20 19:30N 37°56' E 015°39'1 2.3
2018-Feb-20 19:00N 37°56' E 015°41'5 9.3
2018-Feb-20 18:31N 37°54' E 015°46'143 8.7
2018-Feb-20 01:59N 40°01' E 017°10'510.1
2018-Feb-20 01:30N 40°06' E 017°10'5 9.5
2018-Feb-20 01:00N 40°11' E 017°09'5 9.7
2018-Feb-20 00:30N 40°15' E 017°09'510.0
2018-Feb-20 00:01N 40°20' E 017°08'5 9.0
2018-Feb-19 23:30N 40°25' E 017°08'4 8.5
2018-Feb-19 23:00N 40°28' E 017°13'1 1.8
2018-Feb-19 22:30N 40°28' E 017°13'0 0.0
2018-Feb-19 22:00N 40°28' E 017°13'0 0.0
2018-Feb-19 21:24N 40°28' E 017°13'0 0.0
2018-Feb-19 21:00N 40°28' E 017°13'0 0.0
2018-Feb-19 20:30N 40°28' E 017°13'0 0.0
2018-Feb-19 20:00N 40°28' E 017°13'0 0.0
2018-Feb-19 19:30N 40°28' E 017°13'0 0.0
2018-Feb-19 18:57N 40°28' E 017°13'0 0.0
2018-Feb-19 18:27N 40°28' E 017°13'0 0.0
2018-Feb-19 17:57N 40°28' E 017°13'0 0.0
2018-Feb-19 17:27N 40°28' E 017°13'0 0.0
2018-Feb-19 16:57N 40°28' E 017°13'0 0.0
2018-Feb-19 16:27N 40°28' E 017°13'0 0.0
2018-Feb-19 15:57N 40°28' E 017°13'0 0.0
2018-Feb-19 15:27N 40°28' E 017°13'0 0.0
2018-Feb-19 14:57N 40°28' E 017°13'0 0.0
2018-Feb-19 14:21N 40°28' E 017°13'0 0.0
2018-Feb-19 13:57N 40°28' E 017°13'0 0.0
2018-Feb-19 13:27N 40°28' E 017°13'0 0.0
2018-Feb-19 12:57N 40°28' E 017°13'0 0.0
2018-Feb-19 12:27N 40°28' E 017°13'0 0.0
2018-Feb-19 12:00N 40°28' E 017°13'0 0.0
2018-Feb-19 11:27N 40°28' E 017°13'0 0.0
2018-Feb-19 10:57N 40°28' E 017°13'0 0.0
2018-Feb-19 10:27N 40°28' E 017°13'0 0.0
2018-Feb-19 09:57N 40°28' E 017°13'0 0.0
2018-Feb-19 09:27N 40°28' E 017°13'0 0.0
2018-Feb-19 08:57N 40°28' E 017°13'0 0.0
2018-Feb-19 08:15N 40°28' E 017°13'0 0.0
2018-Feb-19 07:57N 40°28' E 017°13'0 0.0
2018-Feb-19 07:27N 40°28' E 017°13'0 0.0
2018-Feb-19 06:57N 40°28' E 017°13'0 0.0
2018-Feb-19 06:30N 40°28' E 017°13'0 0.0
2018-Feb-19 06:00N 40°28' E 017°13'0 0.0
2018-Feb-19 05:30N 40°28' E 017°13'0 0.0
2018-Feb-19 04:57N 40°28' E 017°13'0 0.0
2018-Feb-19 04:30N 40°28' E 017°13'0 0.0
2018-Feb-19 03:51N 40°28' E 017°13'0 0.0
2018-Feb-19 03:30N 40°28' E 017°13'0 0.0
2018-Feb-19 02:57N 40°28' E 017°13'0 0.0
2018-Feb-19 02:30N 40°28' E 017°13'0 0.0
2018-Feb-19 02:00N 40°28' E 017°13'0 0.0
2018-Feb-19 01:27N 40°28' E 017°13'0 0.0
2018-Feb-19 01:00N 40°28' E 017°13'0 0.0
2018-Feb-19 00:27N 40°28' E 017°13'0 0.0
2018-Feb-18 23:57N 40°28' E 017°13'0 0.0
2018-Feb-18 23:30N 40°28' E 017°13'0 0.0
2018-Feb-18 23:00N 40°28' E 017°13'0 0.0
2018-Feb-18 22:30N 40°28' E 017°13'0 0.0
2018-Feb-18 22:00N 40°28' E 017°13'0 0.0
2018-Feb-18 21:30N 40°28' E 017°13'0 0.0
2018-Feb-18 21:00N 40°28' E 017°13'0 0.0
2018-Feb-18 20:30N 40°28' E 017°13'0 0.0
2018-Feb-18 20:00N 40°28' E 017°13'0 0.0
2018-Feb-18 19:27N 40°28' E 017°13'0 0.0
2018-Feb-18 19:00N 40°28' E 017°13'0 0.0
2018-Feb-18 18:27N 40°28' E 017°13'0 0.0
2018-Feb-18 18:00N 40°28' E 017°13'0 0.0
2018-Feb-18 17:30N 40°28' E 017°13'0 0.0
2018-Feb-18 17:00N 40°28' E 017°13'0 0.0
2018-Feb-18 16:30N 40°28' E 017°13'0 0.0
2018-Feb-18 16:00N 40°28' E 017°13'0 0.0
2018-Feb-18 15:30N 40°28' E 017°13'0 0.0
2018-Feb-18 15:00N 40°28' E 017°13'0 0.0
2018-Feb-18 14:30N 40°28' E 017°13'0 0.0
2018-Feb-18 14:00N 40°28' E 017°13'0 0.0
2018-Feb-18 13:30N 40°28' E 017°13'0 0.0
2018-Feb-18 12:57N 40°28' E 017°13'0 0.0
2018-Feb-18 12:27N 40°28' E 017°13'0 0.0
2018-Feb-18 11:57N 40°28' E 017°13'0 0.0
2018-Feb-18 11:27N 40°28' E 017°13'0 0.0
2018-Feb-18 10:57N 40°28' E 017°13'0 0.0
2018-Feb-18 10:27N 40°28' E 017°13'0 0.0
2018-Feb-18 09:57N 40°28' E 017°13'0 0.0
2018-Feb-18 09:27N 40°28' E 017°13'0 0.0
2018-Feb-18 08:57N 40°28' E 017°13'0 0.0
2018-Feb-18 08:27N 40°28' E 017°13'0 0.0
2018-Feb-18 07:57N 40°28' E 017°13'0 0.0
2018-Feb-18 07:27N 40°28' E 017°13'0 0.0
2018-Feb-18 06:57N 40°28' E 017°13'0 0.0
2018-Feb-18 06:27N 40°28' E 017°13'0 0.0
2018-Feb-18 05:57N 40°28' E 017°13'0 0.0
2018-Feb-18 05:30N 40°28' E 017°13'0 0.0
2018-Feb-18 05:00N 40°28' E 017°13'0 0.0
2018-Feb-18 04:27N 40°28' E 017°13'0 0.0
2018-Feb-18 03:57N 40°28' E 017°13'0 0.0
2018-Feb-18 03:30N 40°28' E 017°13'0 0.0
2018-Feb-18 03:00N 40°28' E 017°13'0 0.0
2018-Feb-18 02:30N 40°28' E 017°13'0 0.0
2018-Feb-18 02:00N 40°28' E 017°13'0 0.0
2018-Feb-18 01:30N 40°28' E 017°13'0 0.0
2018-Feb-18 01:00N 40°28' E 017°13'0 0.0
2018-Feb-18 00:30N 40°28' E 017°13'0 0.0
2018-Feb-17 23:57N 40°28' E 017°13'0 0.0
2018-Feb-17 23:30N 40°28' E 017°13'0 0.0
2018-Feb-17 22:57N 40°28' E 017°13'0 0.0
2018-Feb-17 22:27N 40°28' E 017°13'0 0.0
2018-Feb-17 21:57N 40°28' E 017°13'0 0.0
2018-Feb-17 21:30N 40°28' E 017°13'0 0.0
2018-Feb-17 20:57N 40°28' E 017°13'0 0.0
2018-Feb-17 20:30N 40°28' E 017°13'0 0.0
2018-Feb-17 19:57N 40°28' E 017°13'0 0.0
2018-Feb-17 19:27N 40°28' E 017°13'0 0.0
2018-Feb-17 18:57N 40°28' E 017°13'0 0.0
2018-Feb-17 18:27N 40°28' E 017°13'0 0.0
2018-Feb-17 17:57N 40°28' E 017°13'0 0.0
2018-Feb-17 17:27N 40°28' E 017°13'0 0.0
2018-Feb-17 16:57N 40°28' E 017°13'0 0.0
2018-Feb-17 16:27N 40°28' E 017°13'0 0.0
2018-Feb-17 15:57N 40°28' E 017°13'0 0.0
2018-Feb-17 15:27N 40°28' E 017°13'0 0.0
2018-Feb-17 14:57N 40°28' E 017°13'0 0.0
2018-Feb-17 14:27N 40°28' E 017°13'0 0.0
2018-Feb-17 13:57N 40°28' E 017°13'0 0.0
2018-Feb-17 13:27N 40°28' E 017°13'0 0.0
2018-Feb-17 12:57N 40°28' E 017°13'0 0.0
2018-Feb-17 12:27N 40°28' E 017°13'0 0.0
2018-Feb-17 11:57N 40°28' E 017°13'0 0.0
2018-Feb-17 11:27N 40°28' E 017°13'0 0.0
2018-Feb-17 10:57N 40°28' E 017°13'0 0.0
2018-Feb-17 10:27N 40°28' E 017°13'0 0.0
2018-Feb-17 09:57N 40°28' E 017°13'0 0.0
2018-Feb-17 09:27N 40°28' E 017°13'0 0.0
2018-Feb-17 08:57N 40°28' E 017°13'0 0.0
2018-Feb-17 08:27N 40°28' E 017°13'0 0.0
2018-Feb-17 07:57N 40°28' E 017°13'0 0.0
2018-Feb-17 07:27N 40°28' E 017°13'0 0.0
2018-Feb-17 06:57N 40°28' E 017°13'0 0.0
2018-Feb-17 06:27N 40°28' E 017°13'0 0.0
2018-Feb-17 05:57N 40°28' E 017°13'0 0.0
2018-Feb-17 05:30N 40°28' E 017°13'0 0.0
2018-Feb-17 05:00N 40°28' E 017°13'0 0.0
2018-Feb-17 04:30N 40°28' E 017°13'0 0.0
2018-Feb-17 04:00N 40°28' E 017°13'0 0.0
2018-Feb-17 03:30N 40°28' E 017°13'0 0.0
2018-Feb-17 03:00N 40°28' E 017°13'0 0.0
2018-Feb-17 02:30N 40°28' E 017°13'0 0.0
2018-Feb-17 02:00N 40°28' E 017°13'0 0.0
2018-Feb-17 01:30N 40°28' E 017°13'0 0.0
2018-Feb-17 01:00N 40°28' E 017°13'0 0.0
2018-Feb-17 00:30N 40°28' E 017°13'0 0.0
2018-Feb-17 00:00N 40°28' E 017°13'0 0.0
2018-Feb-16 23:30N 40°28' E 017°13'0 0.0
2018-Feb-16 23:00N 40°28' E 017°13'0 0.0
2018-Feb-16 22:30N 40°28' E 017°13'0 0.0
2018-Feb-16 22:00N 40°28' E 017°13'0 0.0
2018-Feb-16 21:30N 40°28' E 017°13'0 0.0
2018-Feb-16 21:00N 40°28' E 017°13'0 0.0
2018-Feb-16 20:30N 40°28' E 017°13'0 0.0
2018-Feb-16 19:57N 40°28' E 017°13'0 0.0
2018-Feb-16 19:27N 40°28' E 017°13'0 0.0
2018-Feb-16 18:57N 40°28' E 017°13'0 0.0
2018-Feb-16 18:30N 40°28' E 017°13'0 0.0
2018-Feb-16 17:57N 40°28' E 017°13'0 0.0
2018-Feb-16 17:27N 40°28' E 017°13'0 0.0
2018-Feb-16 16:57N 40°28' E 017°13'0 0.0
2018-Feb-16 16:21N 40°28' E 017°13'0 0.0
2018-Feb-16 15:57N 40°28' E 017°13'0 0.0
2018-Feb-16 15:27N 40°28' E 017°13'0 0.0
2018-Feb-16 14:57N 40°28' E 017°13'0 0.0
2018-Feb-16 14:30N 40°28' E 017°13'0 0.0
2018-Feb-16 14:00N 40°28' E 017°13'0 0.0
2018-Feb-16 13:30N 40°28' E 017°13'0 0.0
2018-Feb-16 12:57N 40°28' E 017°13'0 0.0
2018-Feb-16 12:30N 40°28' E 017°13'0 0.0
2018-Feb-16 11:57N 40°28' E 017°13'0 0.0
2018-Feb-16 11:27N 40°28' E 017°13'0 0.0
2018-Feb-16 10:57N 40°28' E 017°13'0 0.0
2018-Feb-16 10:27N 40°28' E 017°13'0 0.0
2018-Feb-16 09:51N 40°28' E 017°13'0 0.0
2018-Feb-16 09:27N 40°28' E 017°13'0 0.0
2018-Feb-16 08:57N 40°28' E 017°13'0 0.0
2018-Feb-16 08:27N 40°28' E 017°13'0 0.0
2018-Feb-16 07:57N 40°28' E 017°13'0 0.0
2018-Feb-16 07:27N 40°28' E 017°13'0 0.0
2018-Feb-16 07:00N 40°28' E 017°13'0 0.0
2018-Feb-16 06:30N 40°28' E 017°13'0 0.0
2018-Feb-16 06:00N 40°28' E 017°13'0 0.0
2018-Feb-16 05:30N 40°28' E 017°13'0 0.0
2018-Feb-16 04:54N 40°28' E 017°13'0 0.0
2018-Feb-16 04:30N 40°28' E 017°13'0 0.0
2018-Feb-16 04:00N 40°28' E 017°13'0 0.0
2018-Feb-16 03:30N 40°28' E 017°13'0 0.0
2018-Feb-16 02:57N 40°28' E 017°13'0 0.0
2018-Feb-16 02:30N 40°28' E 017°13'0 0.0
2018-Feb-16 02:00N 40°28' E 017°13'0 0.0
2018-Feb-16 01:30N 40°28' E 017°13'0 0.0
2018-Feb-16 01:00N 40°28' E 017°13'0 0.0
2018-Feb-16 00:27N 40°28' E 017°13'0 0.0
2018-Feb-15 23:57N 40°28' E 017°13'0 0.0
2018-Feb-15 23:27N 40°28' E 017°13'0 0.0
2018-Feb-15 22:57N 40°28' E 017°13'0 0.0
2018-Feb-15 22:27N 40°28' E 017°13'0 0.0
2018-Feb-15 21:57N 40°28' E 017°13'0 0.0
2018-Feb-15 21:27N 40°28' E 017°13'0 0.0
2018-Feb-15 20:57N 40°28' E 017°13'0 0.0
2018-Feb-15 20:27N 40°28' E 017°13'0 0.0
2018-Feb-15 20:00N 40°28' E 017°13'0 0.0
2018-Feb-15 19:30N 40°28' E 017°13'0 0.0
2018-Feb-15 19:00N 40°28' E 017°13'0 0.0
2018-Feb-15 18:30N 40°28' E 017°13'0 0.0
2018-Feb-15 18:00N 40°28' E 017°13'0 0.0
2018-Feb-15 17:27N 40°28' E 017°13'0 0.0
2018-Feb-15 16:57N 40°28' E 017°13'0 0.0
2018-Feb-15 16:27N 40°28' E 017°13'0 0.0
2018-Feb-15 15:57N 40°28' E 017°13'0 0.0
2018-Feb-15 15:27N 40°28' E 017°13'0 0.0
2018-Feb-15 14:57N 40°28' E 017°13'0 0.0
2018-Feb-15 14:27N 40°28' E 017°13'0 0.0
2018-Feb-15 13:57N 40°28' E 017°13'0 0.0
2018-Feb-15 13:27N 40°28' E 017°13'0 0.0
2018-Feb-15 13:00N 40°28' E 017°13'0 0.0
2018-Feb-15 12:24N 40°28' E 017°13'0 0.0
2018-Feb-15 11:54N 40°28' E 017°13'0 0.0
2018-Feb-15 11:30N 40°28' E 017°13'0 0.0
2018-Feb-15 10:57N 40°28' E 017°13'0 0.0
2018-Feb-15 10:27N 40°28' E 017°13'0 0.0
2018-Feb-15 09:57N 40°28' E 017°13'0 0.0
2018-Feb-15 09:30N 40°28' E 017°13'0 0.0
2018-Feb-15 09:00N 40°28' E 017°13'0 0.0
2018-Feb-15 08:27N 40°28' E 017°13'0 0.0
2018-Feb-15 07:57N 40°28' E 017°13'0 0.0
2018-Feb-15 07:30N 40°28' E 017°13'0 0.0
2018-Feb-15 06:57N 40°28' E 017°13'0 0.0
2018-Feb-15 06:21N 40°28' E 017°13'0 0.0
2018-Feb-15 06:00N 40°28' E 017°13'0 0.0
2018-Feb-15 05:30N 40°28' E 017°13'0 0.0
2018-Feb-15 05:00N 40°28' E 017°13'0 0.0
2018-Feb-15 04:30N 40°28' E 017°13'0 0.0
2018-Feb-15 04:00N 40°28' E 017°13'0 0.0
2018-Feb-15 03:30N 40°28' E 017°13'0 0.0
2018-Feb-15 03:00N 40°28' E 017°13'0 0.0
2018-Feb-15 02:30N 40°28' E 017°13'0 0.0
2018-Feb-15 02:00N 40°28' E 017°13'0 0.0
2018-Feb-15 01:30N 40°28' E 017°13'0 0.0
2018-Feb-15 01:00N 40°28' E 017°13'0 0.0
2018-Feb-15 00:30N 40°28' E 017°13'0 0.0
2018-Feb-15 00:00N 40°28' E 017°13'0 0.0
2018-Feb-14 23:30N 40°28' E 017°13'0 0.0
2018-Feb-14 23:00N 40°28' E 017°13'0 0.0
2018-Feb-14 22:30N 40°28' E 017°13'0 0.0
2018-Feb-14 21:57N 40°28' E 017°13'0 0.0
2018-Feb-14 21:30N 40°28' E 017°13'0 0.0
2018-Feb-14 21:00N 40°28' E 017°13'0 0.0
2018-Feb-14 20:30N 40°28' E 017°13'0 0.0
2018-Feb-14 19:57N 40°28' E 017°13'0 0.0
2018-Feb-14 19:30N 40°28' E 017°13'0 0.0
2018-Feb-14 18:57N 40°28' E 017°13'0 0.0
2018-Feb-14 18:27N 40°28' E 017°13'0 0.0
2018-Feb-14 18:00N 40°28' E 017°13'0 0.0
2018-Feb-14 17:27N 40°28' E 017°13'0 0.0
2018-Feb-14 16:57N 40°28' E 017°13'0 0.0
2018-Feb-14 16:27N 40°28' E 017°13'0 0.0
2018-Feb-14 15:57N 40°28' E 017°13'0 0.0
2018-Feb-14 15:27N 40°28' E 017°13'0 0.0
2018-Feb-14 14:57N 40°28' E 017°13'0 0.0
2018-Feb-14 14:15N 40°28' E 017°13'0 0.0
2018-Feb-14 13:57N 40°28' E 017°13'0 0.0
2018-Feb-14 13:27N 40°28' E 017°13'0 0.0
2018-Feb-14 12:57N 40°28' E 017°13'0 0.0
2018-Feb-14 12:27N 40°28' E 017°13'0 0.0
2018-Feb-14 11:57N 40°28' E 017°13'0 0.0
2018-Feb-14 11:21N 40°28' E 017°13'0 0.0
2018-Feb-14 10:57N 40°28' E 017°13'0 0.0
2018-Feb-14 10:27N 40°28' E 017°13'0 0.0
2018-Feb-14 09:57N 40°28' E 017°13'0 0.0
2018-Feb-14 09:30N 40°28' E 017°13'0 0.0
2018-Feb-14 08:57N 40°28' E 017°13'0 0.0
2018-Feb-14 08:27N 40°28' E 017°13'0 0.0
2018-Feb-14 07:57N 40°28' E 017°13'0 0.0
2018-Feb-14 07:30N 40°28' E 017°13'0 0.0
2018-Feb-14 07:00N 40°28' E 017°13'0 0.0
2018-Feb-14 06:30N 40°28' E 017°13'0 0.0
2018-Feb-14 06:00N 40°28' E 017°13'0 0.0
2018-Feb-14 05:30N 40°28' E 017°13'0 0.0
2018-Feb-14 05:00N 40°28' E 017°13'0 0.0
2018-Feb-14 04:30N 40°28' E 017°13'0 0.0
2018-Feb-14 04:00N 40°28' E 017°13'0 0.0
2018-Feb-14 03:30N 40°28' E 017°13'0 0.0
2018-Feb-14 03:00N 40°28' E 017°13'0 0.0
2018-Feb-14 02:30N 40°28' E 017°13'0 0.0
2018-Feb-14 02:00N 40°28' E 017°13'0 0.0
2018-Feb-14 01:27N 40°28' E 017°13'0 0.0
2018-Feb-14 01:00N 40°28' E 017°13'0 0.0
2018-Feb-14 00:30N 40°28' E 017°13'0 0.0
2018-Feb-14 00:00N 40°28' E 017°13'0 0.0
2018-Feb-13 23:30N 40°28' E 017°13'0 0.0
2018-Feb-13 23:00N 40°28' E 017°13'0 0.0
2018-Feb-13 22:30N 40°28' E 017°13'0 0.0
2018-Feb-13 22:00N 40°28' E 017°13'0 0.0
2018-Feb-13 21:30N 40°28' E 017°13'0 0.0
2018-Feb-13 21:00N 40°28' E 017°13'0 0.0
2018-Feb-13 20:30N 40°28' E 017°13'0 0.0
2018-Feb-13 20:00N 40°28' E 017°13'0 0.0
2018-Feb-13 19:27N 40°28' E 017°13'0 0.0
2018-Feb-13 18:57N 40°28' E 017°13'0 0.0
2018-Feb-13 18:27N 40°28' E 017°13'0 0.0
2018-Feb-13 17:57N 40°28' E 017°13'0 0.0
2018-Feb-13 17:27N 40°28' E 017°13'0 0.0
2018-Feb-13 16:57N 40°28' E 017°13'0 0.0
2018-Feb-13 16:27N 40°28' E 017°13'0 0.0
2018-Feb-13 15:54N 40°28' E 017°13'0 0.0
2018-Feb-13 15:27N 40°28' E 017°13'0 0.0
2018-Feb-13 14:57N 40°28' E 017°13'0 0.0
2018-Feb-13 14:27N 40°28' E 017°13'0 0.0
2018-Feb-13 13:57N 40°28' E 017°13'0 0.0
2018-Feb-13 13:27N 40°28' E 017°13'0 0.0
2018-Feb-13 13:00N 40°28' E 017°13'0 0.0
2018-Feb-13 12:27N 40°28' E 017°13'0 0.0
2018-Feb-13 11:57N 40°28' E 017°13'0 0.0
2018-Feb-13 11:27N 40°28' E 017°13'0 0.0
2018-Feb-13 10:57N 40°28' E 017°13'0 0.0
2018-Feb-13 10:27N 40°28' E 017°13'0 0.0
2018-Feb-13 09:57N 40°28' E 017°13'0 0.0
2018-Feb-13 09:27N 40°28' E 017°13'0 0.0
2018-Feb-13 08:57N 40°28' E 017°13'0 0.0
2018-Feb-13 08:30N 40°28' E 017°13'0 0.0
2018-Feb-13 07:57N 40°28' E 017°13'0 0.0
2018-Feb-13 07:27N 40°28' E 017°13'0 0.0
2018-Feb-13 06:57N 40°28' E 017°13'0 0.0
2018-Feb-13 06:27N 40°28' E 017°13'0 0.0
2018-Feb-13 06:00N 40°28' E 017°13'0 0.0
2018-Feb-13 05:30N 40°28' E 017°13'0 0.0
2018-Feb-13 05:00N 40°28' E 017°13'0 0.0
2018-Feb-13 04:30N 40°28' E 017°13'0 0.0
2018-Feb-13 04:00N 40°28' E 017°13'0 0.0
2018-Feb-13 03:30N 40°28' E 017°13'0 0.0
2018-Feb-13 03:00N 40°28' E 017°13'0 0.0
2018-Feb-13 02:30N 40°28' E 017°13'0 0.0
2018-Feb-13 02:00N 40°28' E 017°13'0 0.0
2018-Feb-13 01:30N 40°28' E 017°13'0 0.0
2018-Feb-13 01:00N 40°28' E 017°13'0 0.0
2018-Feb-13 00:30N 40°28' E 017°13'0 0.0
2018-Feb-13 00:00N 40°28' E 017°13'0 0.0
2018-Feb-12 23:30N 40°28' E 017°13'0 0.0
2018-Feb-12 23:00N 40°28' E 017°13'0 0.0
2018-Feb-12 22:30N 40°28' E 017°13'0 0.0
2018-Feb-12 22:00N 40°28' E 017°13'0 0.0
2018-Feb-12 21:30N 40°28' E 017°13'0 0.0
2018-Feb-12 21:00N 40°28' E 017°13'0 0.0
2018-Feb-12 20:30N 40°28' E 017°13'0 0.0
2018-Feb-12 20:00N 40°28' E 017°13'0 0.0
2018-Feb-12 19:30N 40°28' E 017°13'0 0.0
2018-Feb-12 19:00N 40°28' E 017°13'0 0.0
2018-Feb-12 18:30N 40°28' E 017°13'0 0.0
2018-Feb-12 18:00N 40°28' E 017°13'0 0.0
2018-Feb-12 17:30N 40°28' E 017°13'0 0.0
2018-Feb-12 17:00N 40°28' E 017°13'0 0.0
2018-Feb-12 16:30N 40°28' E 017°13'0 0.0
2018-Feb-12 16:00N 40°28' E 017°13'0 0.0
2018-Feb-12 15:12N 40°28' E 017°13'0 0.0
2018-Feb-12 14:45N 40°28' E 017°13'0 0.0
2018-Feb-12 14:30N 40°28' E 017°13'0 0.0
2018-Feb-12 14:00N 40°28' E 017°13'0 0.0
2018-Feb-12 13:30N 40°28' E 017°13'0 0.0
2018-Feb-12 13:00N 40°28' E 017°13'0 0.0
2018-Feb-12 12:27N 40°28' E 017°13'0 0.0
2018-Feb-12 11:57N 40°28' E 017°13'0 0.0
2018-Feb-12 11:27N 40°28' E 017°13'0 0.0
2018-Feb-12 10:57N 40°28' E 017°13'0 0.0
2018-Feb-12 10:27N 40°28' E 017°13'0 0.0
2018-Feb-12 09:57N 40°28' E 017°13'0 0.0
2018-Feb-12 09:27N 40°28' E 017°13'0 0.0
2018-Feb-12 08:57N 40°28' E 017°13'0 0.0
2018-Feb-12 08:27N 40°28' E 017°13'0 0.0
2018-Feb-12 07:57N 40°28' E 017°13'0 0.0
2018-Feb-12 07:21N 40°28' E 017°13'0 0.0
2018-Feb-12 06:57N 40°28' E 017°13'0 0.0
2018-Feb-12 06:15N 40°28' E 017°13'0 0.0
2018-Feb-12 05:57N 40°28' E 017°13'0 0.0
2018-Feb-12 05:27N 40°28' E 017°13'0 0.0
2018-Feb-12 05:00N 40°28' E 017°13'0 0.0
2018-Feb-12 04:30N 40°28' E 017°13'0 0.0
2018-Feb-12 04:00N 40°28' E 017°13'0 0.0
2018-Feb-12 03:30N 40°28' E 017°13'0 0.0
2018-Feb-12 03:00N 40°28' E 017°13'0 0.0
2018-Feb-12 02:30N 40°28' E 017°13'0 0.0
2018-Feb-12 02:00N 40°28' E 017°13'0 0.0
2018-Feb-12 01:21N 40°28' E 017°13'0 0.0
2018-Feb-12 01:00N 40°28' E 017°13'0 0.0
2018-Feb-12 00:30N 40°28' E 017°13'0 0.0
2018-Feb-12 00:00N 40°28' E 017°13'0 0.0
2018-Feb-11 23:27N 40°28' E 017°13'0 0.0
2018-Feb-11 22:57N 40°28' E 017°13'0 0.0
2018-Feb-11 22:30N 40°28' E 017°13'0 0.0
2018-Feb-11 22:00N 40°28' E 017°13'0 0.0
2018-Feb-11 21:30N 40°28' E 017°13'0 0.0
2018-Feb-11 21:00N 40°28' E 017°13'0 0.0
2018-Feb-11 20:30N 40°28' E 017°13'0 0.0
2018-Feb-11 20:00N 40°28' E 017°13'0 0.0
2018-Feb-11 19:30N 40°28' E 017°13'0 0.0
2018-Feb-11 19:00N 40°28' E 017°13'0 0.0
2018-Feb-11 18:30N 40°28' E 017°13'0 0.0
2018-Feb-11 17:57N 40°28' E 017°13'0 0.0
2018-Feb-11 17:27N 40°28' E 017°13'0 0.0
2018-Feb-11 17:00N 40°28' E 017°13'0 0.0
2018-Feb-11 16:27N 40°28' E 017°13'0 0.0
2018-Feb-11 15:57N 40°28' E 017°13'0 0.0
2018-Feb-11 15:30N 40°28' E 017°13'0 0.0
2018-Feb-11 15:00N 40°28' E 017°13'0 0.0
2018-Feb-11 14:30N 40°28' E 017°13'0 0.0
2018-Feb-11 14:00N 40°28' E 017°13'0 0.0
2018-Feb-11 13:27N 40°28' E 017°13'0 0.0
2018-Feb-11 12:57N 40°28' E 017°13'0 0.0
2018-Feb-11 12:27N 40°28' E 017°13'0 0.0
2018-Feb-11 11:57N 40°28' E 017°13'0 0.0
2018-Feb-11 11:27N 40°28' E 017°13'  

Dump ship's entire track history